Time;durP1;ratioP1;P1;durP2;ratioP2;P2;SDS_P1;SDS_P2;PMS_P1;PMS_P2;Temp;Humidity;BMP_temperature;BMP_pressure;BME280_temperature;BME280_humidity;BME280_pressure;Samples;Min_cycle;Max_cycle;Signal;HPM_P1;HPM_P2
2023/07/29 00:00:32;;;;;;;10.13;7.60;;;;;;;16.35;100.00;100720.81;4993299;28;20121;-83
2023/07/29 00:02:57;;;;;;;10.55;7.80;;;;;;;16.12;100.00;100676.91;4975742;28;20057;-84
2023/07/29 00:05:23;;;;;;;11.25;7.82;;;;;;;16.11;100.00;100683.06;4993193;28;20085;-84
2023/07/29 00:10:51;;;;;;;11.23;8.05;;;;;;;15.57;100.00;100572.41;4993194;28;20040;-84
2023/07/29 00:13:16;;;;;;;9.90;8.18;;;;;;;15.69;100.00;100581.75;4992776;28;20034;-84
2023/07/29 00:15:44;;;;;;;8.65;7.50;;;;;;;16.53;100.00;100701.91;4993095;28;20030;-84
2023/07/29 00:18:13;;;;;;;10.98;8.30;;;;;;;15.43;100.00;100527.56;4993053;28;20018;-83
2023/07/29 00:20:50;;;;;;;13.23;8.95;;;;;;;15.46;100.00;100531.69;4993082;28;20030;-83
2023/07/29 00:23:19;;;;;;;9.98;7.63;;;;;;;16.25;100.00;100667.88;4992831;28;20101;-82
2023/07/29 00:25:44;;;;;;;8.60;7.70;;;;;;;16.20;100.00;100677.03;4992907;28;20113;-84
2023/07/29 00:28:10;;;;;;;8.82;7.10;;;;;;;16.22;100.00;100681.19;4975650;28;20472;-81
2023/07/29 00:30:38;;;;;;;9.23;7.45;;;;;;;15.74;100.00;100606.44;4992804;28;20498;-84
2023/07/29 00:36:50;;;;;;;11.68;8.07;;;;;;;16.50;100.00;100704.75;4993101;28;20038;-84
2023/07/29 00:39:15;;;;;;;11.43;8.18;;;;;;;16.35;100.00;100673.09;4992771;28;20476;-83
2023/07/29 00:41:49;;;;;;;11.13;9.40;;;;;;;15.75;100.00;100573.41;4992668;28;20109;-84
2023/07/29 00:47:05;;;;;;;10.55;9.07;;;;;;;16.34;100.00;100642.78;4992770;28;20046;-84
2023/07/29 00:49:34;;;;;;;11.05;8.75;;;;;;;15.81;100.00;100548.59;4992727;28;20093;-84
2023/07/29 00:52:15;;;;;;;10.48;8.70;;;;;;;15.49;100.00;100500.19;4992410;28;20030;-82
2023/07/29 00:54:40;;;;;;;14.70;8.90;;;;;;;15.74;100.00;100546.56;4992511;28;20498;-84
2023/07/29 00:57:08;;;;;;;10.57;8.23;;;;;;;15.46;100.00;100495.28;4993251;28;20019;-82
2023/07/29 00:59:43;;;;;;;10.80;8.10;;;;;;;15.47;100.00;100499.50;4996186;28;20108;-84
2023/07/29 01:02:14;;;;;;;10.60;8.88;;;;;;;16.03;100.00;100590.00;4996094;28;20026;-84
2023/07/29 01:04:39;;;;;;;;;;;;;;;16.62;100.00;100681.03;4996265;28;20025;-80
2023/07/29 01:07:48;;;;;;;11.70;8.68;;;;;;;16.55;100.00;100677.34;4996149;28;20004;-83
2023/07/29 01:10:43;;;;;;;10.48;8.20;;;;;;;16.25;100.00;100646.22;4995887;28;20073;-81
2023/07/29 01:13:27;;;;;;;10.23;7.60;;;;;;;16.44;100.00;100682.69;4916947;29;20040;-82
2023/07/29 01:15:52;;;;;;;11.20;7.00;;;;;;;16.38;100.00;100682.41;4916864;29;20043;-80
2023/07/29 01:18:47;;;;;;;9.98;7.85;;;;;;;16.28;100.00;100675.41;4916945;29;20048;-80
2023/07/29 01:21:30;;;;;;;9.15;7.53;;;;;;;15.10;100.00;100489.72;4916602;29;20048;-81
2023/07/29 01:23:59;;;;;;;10.32;7.18;;;;;;;15.14;100.00;100513.69;4916505;29;20048;-81
2023/07/29 01:26:25;;;;;;;9.85;7.85;;;;;;;15.88;100.00;100636.44;4905398;29;20076;-80
2023/07/29 01:28:58;;;;;;;9.88;8.02;;;;;;;14.92;100.00;100486.94;4897839;29;20483;-82
2023/07/29 01:31:57;;;;;;;11.43;7.75;;;;;;;15.62;100.00;100599.69;4897677;29;20093;-80
2023/07/29 01:38:13;;;;;;;9.10;7.82;;;;;;;15.15;100.00;100516.19;4897843;29;20048;-81
2023/07/29 01:40:40;;;;;;;10.60;9.45;;;;;;;15.51;100.00;100555.53;4897579;29;20040;-80
2023/07/29 01:43:25;;;;;;;12.88;10.30;;;;;;;15.67;100.00;100563.66;4897593;29;20049;-80
2023/07/29 01:45:57;;;;;;;11.40;9.93;;;;;;;15.28;100.00;100489.91;4897603;29;20044;-80
2023/07/29 01:48:42;;;;;;;12.32;10.57;;;;;;;15.42;100.00;100502.50;4897355;29;20033;-80
2023/07/29 01:51:09;;;;;;;12.13;10.25;;;;;;;15.77;100.00;100538.47;4967736;28;20554;-80
2023/07/29 01:53:46;;;;;;;16.85;10.88;;;;;;;15.94;100.00;100575.19;4975567;28;20042;-80
2023/07/29 01:56:12;;;;;;;11.07;9.50;;;;;;;16.82;100.00;100699.28;4975939;28;20037;-82
2023/07/29 01:58:52;;;;;;;11.65;9.00;;;;;;;15.98;100.00;100561.75;4975855;28;20031;-81
2023/07/29 02:01:42;;;;;;;;;;;;;;;;;;;;;
2023/07/29 02:04:11;;;;;;;10.98;7.50;;;;;;;16.11;100.00;100582.31;4975235;28;20034;-82
2023/07/29 02:06:54;;;;;;;10.57;7.88;;;;;;;15.62;100.00;100495.56;4975288;28;20035;-82
2023/07/29 02:09:20;;;;;;;11.07;8.27;;;;;;;16.10;100.00;100572.84;4974723;28;20369;-82
2023/07/29 02:12:00;;;;;;;11.07;8.60;;;;;;;15.82;100.00;100514.59;4958011;28;20034;-81
2023/07/29 02:17:24;;;;;;;11.48;8.48;;;;;;;15.77;100.00;100496.81;4975573;28;20628;-82
2023/07/29 02:19:52;;;;;;;11.98;7.75;;;;;;;16.93;100.00;100688.69;4965949;28;20110;-81
2023/07/29 02:22:27;;;;;;;11.35;8.18;;;;;;;15.98;100.00;100543.53;4955976;29;20063;-81
2023/07/29 02:25:05;;;;;;;10.65;8.68;;;;;;;15.97;100.00;100536.66;4955858;29;20047;-81
2023/07/29 02:27:55;;;;;;;12.07;8.27;;;;;;;16.83;100.00;100677.47;4974958;28;20066;-80
2023/07/29 02:30:21;;;;;;;10.65;7.80;;;;;;;16.51;100.00;100649.06;4974875;28;20047;-81
2023/07/29 02:32:46;;;;;;;11.45;8.13;;;;;;;16.33;100.00;100639.34;4974708;28;20065;-81
2023/07/29 02:35:12;;;;;;;10.90;7.85;;;;;;;16.47;100.00;100674.59;4975211;28;20432;-82
2023/07/29 02:37:37;;;;;;;10.23;7.70;;;;;;;15.55;100.00;100536.09;4974858;28;20053;-82
2023/07/29 02:40:18;;;;;;;10.02;7.35;;;;;;;15.16;100.00;100478.81;4974690;28;20031;-80
2023/07/29 02:43:01;;;;;;;10.45;7.85;;;;;;;16.30;100.00;100664.84;4974991;28;20030;-80
2023/07/29 02:45:26;;;;;;;9.52;7.13;;;;;;;15.03;100.00;100473.00;4974798;28;20078;-81
2023/07/29 02:47:54;;;;;;;10.27;7.15;;;;;;;16.17;100.00;100679.94;4957174;28;20035;-81
2023/07/29 02:50:29;;;;;;;10.02;7.05;;;;;;;15.39;100.00;100554.81;4957434;28;20438;-81
2023/07/29 02:53:31;;;;;;;8.85;6.95;;;;;;;16.14;100.00;100669.81;4974535;28;20027;-81
2023/07/29 02:55:56;;;;;;;9.00;6.78;;;;;;;15.19;100.00;100525.34;4974425;28;20022;-82
2023/07/29 02:58:55;;;;;;;9.25;6.50;;;;;;;16.07;100.00;100672.13;4974627;28;20477;-81
2023/07/29 03:04:15;;;;;;;;;;;;;;;16.05;100.00;100671.44;4974925;28;20392;-83
2023/07/29 03:06:41;;;;;;;9.57;7.00;;;;;;;15.73;100.00;100625.63;4974400;28;19914;-85
2023/07/29 03:09:06;;;;;;;10.57;6.88;;;;;;;15.34;100.00;100576.97;4957308;28;20915;-85
2023/07/29 03:11:34;;;;;;;11.73;7.57;;;;;;;15.84;100.00;100657.69;4974188;28;20467;-84
2023/07/29 03:14:12;;;;;;;12.18;7.50;;;;;;;14.71;100.00;100462.00;4974012;28;20030;-85
2023/07/29 03:16:37;;;;;;;11.88;7.93;;;;;;;15.14;100.00;100542.28;4974047;28;20081;-85
2023/07/29 03:19:09;;;;;;;10.98;8.13;;;;;;;15.06;100.00;100529.97;4974116;28;20031;-85
2023/07/29 03:21:47;;;;;;;10.63;7.30;;;;;;;15.90;100.00;100667.56;4973752;28;20023;-84
2023/07/29 03:24:30;;;;;;;11.00;7.65;;;;;;;14.98;100.00;100516.81;4974493;28;20046;-85
2023/07/29 03:26:56;;;;;;;10.02;7.47;;;;;;;14.66;100.00;100474.56;4973105;28;20549;-85
2023/07/29 03:29:30;;;;;;;11.38;7.68;;;;;;;15.39;100.00;100601.66;4974089;28;20047;-84
2023/07/29 03:32:11;;;;;;;11.70;6.53;;;;;;;14.61;100.00;100482.75;4974207;28;20022;-84
2023/07/29 03:34:36;;;;;;;9.68;6.55;;;;;;;14.86;100.00;100530.88;4974182;28;20031;-86
2023/07/29 03:37:14;;;;;;;8.88;6.63;;;;;;;14.49;100.00;100471.63;4974059;28;20031;-84
2023/07/29 03:39:52;;;;;;;9.20;6.45;;;;;;;14.60;100.00;100489.72;4973978;28;20161;-83
2023/07/29 03:42:17;;;;;;;9.77;6.65;;;;;;;15.68;100.00;100677.25;4974186;28;20151;-85
2023/07/29 03:47:29;;;;;;;9.13;5.82;;;;;;;15.13;100.00;100606.50;4972602;28;20499;-84
2023/07/29 03:49:54;;;;;;;8.80;6.47;;;;;;;15.03;100.00;100591.81;4973925;28;20396;-84
2023/07/29 03:52:20;;;;;;;8.50;6.00;;;;;;;15.59;100.00;100664.19;4973719;28;20034;-87
2023/07/29 03:55:01;;;;;;;7.85;5.47;;;;;;;15.52;100.00;100663.06;4973776;28;20035;-84
2023/07/29 03:57:26;;;;;;;10.73;5.50;;;;;;;14.47;100.00;100501.28;4956253;28;20468;-84
2023/07/29 04:00:13;;;;;;;8.52;5.35;;;;;;;14.71;100.00;100535.59;4973923;28;20062;-85
2023/07/29 04:02:40;;;;;;;8.88;5.60;;;;;;;14.53;100.00;100498.97;4973800;28;20075;-83
2023/07/29 04:05:08;;;;;;;6.93;5.10;;;;;;;14.33;100.00;100461.66;4956574;28;20031;-84
2023/07/29 04:08:19;;;;;;;7.75;4.90;;;;;;;15.44;100.00;100627.31;4952762;28;20035;-84
2023/07/29 04:11:18;;;;;;;9.30;5.25;;;;;;;15.41;100.00;100625.75;4973891;28;20113;-85
2023/07/29 04:13:46;;;;;;;8.45;5.38;;;;;;;14.24;100.00;100446.84;4973505;28;20035;-84
2023/07/29 04:16:24;;;;;;;8.02;5.20;;;;;;;14.06;100.00;100425.88;4973685;28;20435;-83
2023/07/29 04:19:01;;;;;;;8.63;5.30;;;;;;;14.55;100.00;100504.03;4973694;28;20114;-85
2023/07/29 04:21:29;;;;;;;8.30;5.55;;;;;;;15.42;100.00;100632.63;4973742;28;20408;-85
2023/07/29 04:24:23;;;;;;;8.68;5.53;;;;;;;15.44;100.00;100655.94;4973613;28;20031;-84
2023/07/29 04:30:21;;;;;;;8.80;5.50;;;;;;;14.68;100.00;100564.44;4954143;29;20074;-85
2023/07/29 04:32:48;;;;;;;9.27;5.70;;;;;;;14.21;100.00;100491.28;4957450;28;20078;-84
2023/07/29 04:35:17;;;;;;;7.80;5.47;;;;;;;15.29;100.00;100673.66;4940718;29;20053;-83
2023/07/29 04:37:47;;;;;;;10.52;5.88;;;;;;;14.88;100.00;100602.56;4940499;29;20110;-85
2023/07/29 04:40:18;;;;;;;7.55;5.15;;;;;;;14.37;100.00;100498.63;4957604;29;20053;-83
2023/07/29 04:42:51;;;;;;;8.98;5.78;;;;;;;15.08;100.00;100607.88;4957641;29;20031;-84
2023/07/29 04:45:16;;;;;;;10.07;5.55;;;;;;;14.78;100.00;100567.09;4940432;29;20027;-81
2023/07/29 04:47:47;;;;;;;9.00;5.72;;;;;;;14.94;100.00;100585.63;4957725;29;20436;-84
2023/07/29 04:50:16;;;;;;;;;;;;;;;15.69;100.00;100696.28;4940709;29;20024;-85
2023/07/29 04:52:50;;;;;;;7.90;4.85;;;;;;;14.48;100.00;100503.75;4957497;29;19925;-86
2023/07/29 05:02:31;;;;;;;8.20;5.00;;;;;;;15.90;100.00;100697.03;4957615;29;20453;-85
2023/07/29 05:08:21;;;;;;;;;;;;;;;16.00;100.00;100699.66;4957770;29;20050;-82
2023/07/29 05:11:44;;;;;;;8.38;4.97;;;;;;;15.99;100.00;100706.66;4957237;29;19915;-83
2023/07/29 05:14:28;;;;;;;9.07;5.05;;;;;;;15.62;100.00;100656.94;4939641;29;20094;-84
2023/07/29 05:16:59;;;;;;;7.10;4.43;;;;;;;14.79;100.00;100508.94;4956982;29;20031;-84
2023/07/29 05:19:43;;;;;;;7.28;4.65;;;;;;;14.81;100.00;100507.03;4957068;29;20472;-84
2023/07/29 05:22:42;;;;;;;7.65;4.70;;;;;;;16.16;100.00;100720.81;4957082;29;20488;-82
2023/07/29 05:25:16;;;;;;;7.50;4.47;;;;;;;15.24;100.00;100555.31;4957022;29;20079;-82
2023/07/29 05:27:41;;;;;;;8.35;3.83;;;;;;;15.34;100.00;100569.19;4973837;28;20055;-82
2023/07/29 05:30:07;;;;;;;6.78;4.25;;;;;;;15.56;100.00;100586.38;4976044;28;20033;-81
2023/07/29 05:32:33;;;;;;;9.05;4.10;;;;;;;15.55;100.00;100556.09;4976083;28;20155;-81
2023/07/29 05:34:58;;;;;;;5.53;4.07;;;;;;;16.47;100.00;100703.25;4976024;28;20039;-82
2023/07/29 05:37:24;;;;;;;6.88;4.20;;;;;;;15.88;100.00;100588.75;4975926;28;20023;-81
2023/07/29 05:39:49;;;;;;;6.35;3.75;;;;;;;16.45;100.00;100647.03;4976183;28;20027;-80
2023/07/29 05:42:14;;;;;;;6.93;3.50;;;;;;;16.89;100.00;100685.53;4975582;28;20035;-82
2023/07/29 05:44:48;;;;;;;6.70;4.05;;;;;;;16.64;100.00;100642.59;4975244;28;20027;-83
2023/07/29 05:47:41;;;;;;;7.80;3.45;;;;;;;17.18;100.00;100719.38;4975711;28;20106;-83
2023/07/29 05:50:07;;;;;;;4.80;3.28;;;;;;;17.31;100.00;100684.31;4975574;28;20035;-82
2023/07/29 05:52:33;;;;;;;6.47;3.63;;;;;;;17.86;100.00;100585.06;4975657;28;20571;-81
2023/07/29 05:54:58;;;;;;;5.15;3.38;;;;;;;20.00;94.18;100709.00;4975796;28;20365;-82
2023/07/29 05:57:23;;;;;;;6.65;3.17;;;;;;;20.79;86.20;100676.13;4975499;28;20030;-83
2023/07/29 05:59:49;;;;;;;6.25;3.25;;;;;;;22.11;80.88;100717.53;4958605;28;20077;-83
2023/07/29 06:02:17;;;;;;;8.30;2.85;;;;;;;23.01;75.35;100704.47;4975595;28;20086;-82
2023/07/29 06:04:43;;;;;;;6.55;2.78;;;;;;;23.50;71.95;100682.84;4975362;28;20114;-82
2023/07/29 06:07:08;;;;;;;4.55;2.50;;;;;;;23.57;69.87;100719.81;4975558;28;20129;-81
2023/07/29 06:09:40;;;;;;;3.40;2.28;;;;;;;23.03;72.52;100713.03;4975410;28;20031;-85
2023/07/29 06:12:05;;;;;;;5.20;2.67;;;;;;;21.89;72.75;100589.47;4975123;28;20531;-83
2023/07/29 06:14:31;;;;;;;4.72;2.40;;;;;;;22.26;73.35;100697.38;4975479;28;20106;-80
2023/07/29 06:17:02;;;;;;;4.72;2.55;;;;;;;21.87;75.65;100715.03;4968971;28;20102;-78
2023/07/29 06:19:43;;;;;;;7.30;2.60;;;;;;;20.19;80.09;100552.41;4956556;29;20034;-79
2023/07/29 06:22:09;;;;;;;3.97;2.50;;;;;;;19.70;81.00;100547.16;4956184;28;20027;-81
2023/07/29 06:24:38;;;;;;;5.75;2.80;;;;;;;19.85;85.18;100631.97;4955889;28;20445;-81
2023/07/29 06:27:03;;;;;;;7.43;2.80;;;;;;;19.94;85.63;100659.03;4978242;28;20527;-83
2023/07/29 06:29:40;;;;;;;5.72;3.03;;;;;;;19.33;86.27;100585.03;4994555;28;20027;-83
2023/07/29 06:32:06;;;;;;;5.65;2.63;;;;;;;19.19;86.47;100572.56;4994063;28;20097;-84
2023/07/29 06:34:31;;;;;;;5.43;3.40;;;;;;;19.98;86.50;100712.78;4993418;28;20019;-83
2023/07/29 06:36:59;;;;;;;7.07;3.00;;;;;;;19.41;87.70;100644.47;4995123;28;20022;-81
2023/07/29 06:39:25;;;;;;;5.45;2.95;;;;;;;19.10;88.38;100597.06;4994502;28;20030;-81
2023/07/29 06:42:05;;;;;;;5.75;3.00;;;;;;;19.63;86.84;100512.91;4994221;28;20117;-84
2023/07/29 06:44:36;;;;;;;4.73;2.50;;;;;;;23.20;76.62;100713.63;4994389;28;20027;-84
2023/07/29 06:47:02;;;;;;;5.40;2.42;;;;;;;24.04;65.90;100605.94;4994268;28;20057;-83
2023/07/29 06:49:27;;;;;;;5.93;2.30;;;;;;;25.98;62.05;100716.03;4994370;28;20064;-83
2023/07/29 06:51:53;;;;;;;6.53;2.33;;;;;;;26.89;57.52;100713.66;4994037;28;20034;-78
2023/07/29 06:54:18;;;;;;;3.55;2.03;;;;;;;27.61;55.02;100703.88;4994148;28;20387;-78
2023/07/29 06:56:43;;;;;;;5.13;2.45;;;;;;;28.12;51.29;100708.31;4993988;28;20444;-77
2023/07/29 06:59:08;;;;;;;3.22;2.00;;;;;;;28.40;50.26;100699.97;4993683;28;20383;-78
2023/07/29 07:01:34;;;;;;;4.75;2.10;;;;;;;28.08;50.26;100701.81;4993835;28;20026;-77
2023/07/29 07:03:59;;;;;;;4.15;2.00;;;;;;;27.51;51.60;100714.13;4993815;28;20069;-76
2023/07/29 07:06:25;;;;;;;5.55;2.40;;;;;;;27.53;51.33;100697.00;4993868;28;20018;-78
2023/07/29 07:08:51;;;;;;;3.28;1.90;;;;;;;27.88;50.91;100717.84;4993997;28;20034;-77
2023/07/29 07:11:17;;;;;;;4.72;2.00;;;;;;;26.31;53.83;100724.03;4993805;28;20018;-75
2023/07/29 07:13:43;;;;;;;4.38;2.17;;;;;;;25.24;58.14;100726.47;4993231;28;20511;-77
2023/07/29 07:16:08;;;;;;;3.83;2.22;;;;;;;24.78;60.51;100732.28;4993507;28;20027;-82
2023/07/29 07:18:33;;;;;;;5.18;2.38;;;;;;;24.52;60.26;100711.75;4993620;28;20383;-77
2023/07/29 07:20:59;;;;;;;9.82;3.17;;;;;;;23.78;64.18;100719.06;4975460;28;20042;-75
2023/07/29 07:23:24;;;;;;;6.20;2.00;;;;;;;23.08;68.01;100705.38;4993673;28;20539;-75
2023/07/29 07:25:49;;;;;;;4.75;2.50;;;;;;;22.94;70.38;100729.06;4975675;28;20109;-76
2023/07/29 07:28:15;;;;;;;8.43;2.67;;;;;;;22.46;71.49;100696.91;4993306;28;20122;-80
2023/07/29 07:30:44;;;;;;;4.55;1.92;;;;;;;22.47;71.95;100690.63;4993477;28;20506;-79
2023/07/29 07:33:09;;;;;;;3.95;2.00;;;;;;;23.41;69.58;100707.66;4993489;28;20037;-78
2023/07/29 07:35:35;;;;;;;3.30;1.92;;;;;;;23.54;68.35;100693.81;4993559;28;20026;-81
2023/07/29 07:38:02;;;;;;;3.40;2.10;;;;;;;23.07;68.68;100708.19;4993439;28;20116;-80
2023/07/29 07:40:31;;;;;;;4.43;2.00;;;;;;;22.55;72.41;100733.50;4993517;28;20030;-83
2023/07/29 07:42:56;;;;;;;3.50;2.10;;;;;;;22.01;73.91;100744.00;4993169;28;20452;-81
2023/07/29 07:45:21;;;;;;;4.20;2.50;;;;;;;21.33;76.02;100697.34;4993102;28;20057;-80
2023/07/29 07:47:48;;;;;;;4.40;2.55;;;;;;;21.31;77.36;100732.66;4993567;28;20050;-79
2023/07/29 07:50:14;;;;;;;3.97;2.30;;;;;;;21.32;77.94;100758.75;4993454;28;20494;-80
2023/07/29 07:52:39;;;;;;;5.43;2.90;;;;;;;20.73;79.69;100724.00;4993201;28;20022;-80
2023/07/29 07:55:05;;;;;;;4.18;2.40;;;;;;;20.66;81.32;100715.19;4993105;28;20026;-80
2023/07/29 07:57:30;;;;;;;4.45;2.30;;;;;;;20.98;81.67;100756.31;4993188;28;20057;-80
2023/07/29 07:59:56;;;;;;;4.88;2.75;;;;;;;20.44;80.99;100665.97;4992947;28;20101;-79
2023/07/29 08:02:21;;;;;;;4.70;2.67;;;;;;;20.94;81.46;100764.69;4993220;28;20399;-81
2023/07/29 08:04:46;;;;;;;6.35;2.65;;;;;;;20.98;82.56;100756.31;4993052;28;20027;-80
2023/07/29 08:07:13;;;;;;;6.03;2.70;;;;;;;21.21;81.60;100756.44;4995700;28;20030;-82
2023/07/29 08:09:38;;;;;;;5.03;2.70;;;;;;;21.64;80.96;100733.38;4997053;28;20029;-80
2023/07/29 08:12:04;;;;;;;5.78;2.72;;;;;;;21.52;78.09;100690.03;4996917;28;20113;-80
2023/07/29 08:14:29;;;;;;;5.40;2.90;;;;;;;21.99;77.99;100760.97;4996948;28;20041;-77
2023/07/29 08:16:54;;;;;;;5.65;2.47;;;;;;;22.23;76.36;100757.41;4996732;28;20447;-76
2023/07/29 08:19:20;;;;;;;3.95;2.10;;;;;;;22.46;74.33;100744.25;4995240;28;20397;-78
2023/07/29 08:21:51;;;;;;;3.97;2.20;;;;;;;22.56;73.23;100761.44;4997389;28;20045;-84
2023/07/29 08:24:19;;;;;;;3.85;2.53;;;;;;;22.46;73.82;100762.69;4997135;28;20026;-83
2023/07/29 08:26:45;;;;;;;5.75;2.47;;;;;;;22.23;73.51;100752.97;4996579;28;20046;-80
2023/07/29 08:29:11;;;;;;;4.60;2.47;;;;;;;22.08;75.04;100736.28;4996495;28;20034;-77
2023/07/29 08:31:36;;;;;;;3.42;2.17;;;;;;;22.27;74.97;100749.00;4996642;28;20022;-83
2023/07/29 08:34:02;;;;;;;3.13;2.13;;;;;;;22.58;74.73;100746.28;4979402;28;20049;-76
2023/07/29 08:36:27;;;;;;;4.50;2.20;;;;;;;22.83;73.29;100762.72;4996765;28;20109;-82
2023/07/29 08:38:52;;;;;;;3.30;2.20;;;;;;;22.72;70.81;100715.75;4978606;28;20042;-85
2023/07/29 08:41:33;;;;;;;3.90;1.90;;;;;;;22.87;72.60;100729.78;4996651;28;20026;-84
2023/07/29 08:44:16;;;;;;;3.43;2.20;;;;;;;22.84;72.77;100753.03;4996430;28;20077;-83
2023/07/29 08:46:44;;;;;;;3.17;1.95;;;;;;;22.68;71.90;100751.31;4996311;28;20755;-82
2023/07/29 08:49:13;;;;;;;2.70;1.75;;;;;;;22.80;70.13;100751.69;4996652;28;20105;-79
2023/07/29 08:51:43;;;;;;;4.25;1.70;;;;;;;22.79;71.14;100711.41;4996282;28;20563;-85
2023/07/29 08:54:10;;;;;;;3.97;2.00;;;;;;;22.70;69.82;100716.91;4996208;28;20395;-78
2023/07/29 08:56:36;;;;;;;3.90;1.88;;;;;;;22.64;71.95;100725.53;4996221;28;20030;-83
2023/07/29 08:59:02;;;;;;;3.78;1.75;;;;;;;22.84;70.85;100748.59;4996011;28;20462;-80
2023/07/29 09:01:27;;;;;;;2.25;1.40;;;;;;;22.96;69.00;100713.91;4979082;28;20049;-79
2023/07/29 09:03:53;;;;;;;5.38;1.98;;;;;;;23.27;67.49;100751.44;4996190;28;20026;-80
2023/07/29 09:06:20;;;;;;;4.25;1.52;;;;;;;22.87;67.98;100702.63;4996206;28;20057;-84
2023/07/29 09:08:48;;;;;;;4.43;1.60;;;;;;;23.03;68.79;100754.34;4996133;28;20027;-79
2023/07/29 09:11:16;;;;;;;3.33;1.58;;;;;;;23.04;71.00;100751.53;4996048;28;20077;-83
2023/07/29 09:13:42;;;;;;;2.30;1.35;;;;;;;23.09;68.74;100740.44;4995846;28;20034;-86
2023/07/29 09:16:11;;;;;;;3.85;1.70;;;;;;;23.00;67.40;100718.63;4996023;28;20030;-85
2023/07/29 09:18:36;;;;;;;3.00;1.70;;;;;;;23.07;69.45;100719.53;4998319;28;20023;-85
2023/07/29 09:21:01;;;;;;;3.20;1.50;;;;;;;23.22;67.72;100743.28;4998490;28;20556;-85
2023/07/29 09:23:30;;;;;;;4.35;1.30;;;;;;;22.89;69.75;100698.81;4999493;28;20030;-85
2023/07/29 09:26:02;;;;;;;2.80;1.52;;;;;;;23.15;68.28;100732.63;4996822;28;20050;-84
2023/07/29 09:28:33;;;;;;;1.75;1.15;;;;;;;23.30;68.50;100734.44;4997395;28;20054;-86
2023/07/29 09:30:59;;;;;;;1.88;1.17;;;;;;;23.07;68.05;100695.84;4998034;28;20126;-86
2023/07/29 09:33:31;;;;;;;3.25;1.30;;;;;;;23.17;69.25;100719.28;4999255;28;20066;-86
2023/07/29 09:36:17;;;;;;;2.05;1.40;;;;;;;22.45;68.41;100595.28;4978633;28;20022;-88
2023/07/29 09:38:57;;;;;;;2.00;1.33;;;;;;;22.27;67.39;100566.66;4996041;28;20028;-90
2023/07/29 09:41:27;;;;;;;1.63;1.20;;;;;;;23.27;66.94;100716.38;4995826;28;20030;-89
2023/07/29 09:43:58;;;;;;;3.55;1.10;;;;;;;23.03;67.17;100673.50;4995658;28;20030;-88
2023/07/29 09:46:25;;;;;;;1.60;0.95;;;;;;;23.40;67.19;100735.00;4995678;28;20104;-89
2023/07/29 09:48:57;;;;;;;3.22;1.40;;;;;;;23.25;67.99;100735.00;4995558;28;20472;-88
2023/07/29 09:51:24;;;;;;;2.80;1.13;;;;;;;22.85;66.01;100704.63;4995317;28;20026;-86
2023/07/29 09:53:51;;;;;;;3.20;1.40;;;;;;;23.33;68.07;100734.91;4995591;28;20077;-88
2023/07/29 09:56:17;;;;;;;1.92;1.30;;;;;;;23.72;66.21;100739.09;4978154;28;20034;-87
2023/07/29 09:58:58;;;;;;;2.60;1.27;;;;;;;23.96;64.55;100730.03;4995483;28;20428;-84
2023/07/29 10:04:17;;;;;;;5.85;1.40;;;;;;;23.81;62.31;100634.34;4994916;28;20042;-86
2023/07/29 10:06:46;;;;;;;1.83;1.20;;;;;;;24.76;62.07;100737.72;4994994;28;20456;-86
2023/07/29 10:09:12;;;;;;;5.32;1.50;;;;;;;25.03;61.89;100733.47;4994994;28;20037;-88
2023/07/29 10:11:39;;;;;;;2.63;1.15;;;;;;;24.96;60.04;100690.31;4994901;28;20027;-83
2023/07/29 10:14:04;;;;;;;2.47;1.30;;;;;;;25.01;58.88;100727.53;4993727;28;20033;-87
2023/07/29 10:16:30;;;;;;;2.30;1.42;;;;;;;24.86;59.11;100732.09;4995284;28;20384;-88
2023/07/29 10:18:57;;;;;;;3.40;1.52;;;;;;;24.68;60.57;100700.06;4994687;28;20031;-87
2023/07/29 10:21:23;;;;;;;3.90;1.42;;;;;;;24.64;60.52;100675.06;4994673;28;20026;-83
2023/07/29 10:23:53;;;;;;;2.25;1.30;;;;;;;25.09;61.78;100727.44;4994671;28;20058;-85
2023/07/29 10:26:22;;;;;;;3.40;1.77;;;;;;;24.54;59.02;100643.72;4994718;28;20081;-84
2023/07/29 10:28:51;;;;;;;1.70;1.45;;;;;;;24.95;59.48;100709.00;4994078;28;20372;-86
2023/07/29 10:31:17;;;;;;;3.17;1.50;;;;;;;25.24;60.56;100732.59;4994398;28;20026;-85
2023/07/29 10:33:44;;;;;;;2.95;2.00;;;;;;;25.30;59.28;100720.44;4976583;28;20046;-88
2023/07/29 10:36:11;;;;;;;4.47;1.67;;;;;;;25.32;59.31;100724.50;4995748;28;20101;-87
2023/07/29 10:38:37;;;;;;;3.10;1.40;;;;;;;25.12;60.11;100673.38;4994561;28;20077;-85
2023/07/29 10:41:02;;;;;;;2.17;1.42;;;;;;;25.53;60.01;100725.41;4976951;28;20030;-84
2023/07/29 10:43:40;;;;;;;2.20;1.63;;;;;;;25.60;61.13;100715.69;4994407;28;20061;-81
2023/07/29 10:46:17;;;;;;;4.57;1.67;;;;;;;25.54;60.71;100714.63;4976318;28;20057;-84
2023/07/29 10:48:43;;;;;;;1.92;1.48;;;;;;;25.31;59.34;100712.31;4994165;28;20072;-81
2023/07/29 10:51:29;;;;;;;3.20;1.58;;;;;;;25.01;58.62;100671.25;4994160;28;20026;-83
2023/07/29 10:53:57;;;;;;;2.08;1.38;;;;;;;25.22;59.61;100688.88;4993753;28;20043;-80
2023/07/29 10:56:36;;;;;;;3.45;1.60;;;;;;;25.41;56.66;100699.53;4993938;28;20097;-83
2023/07/29 10:59:17;;;;;;;2.97;1.70;;;;;;;25.42;57.84;100717.03;4994270;28;20053;-85
2023/07/29 11:01:54;;;;;;;3.60;1.70;;;;;;;25.10;57.80;100694.72;4994004;28;20034;-84
2023/07/29 11:04:25;;;;;;;7.43;2.05;;;;;;;25.01;58.25;100713.53;4978211;28;20495;-85
2023/07/29 11:07:03;;;;;;;2.42;1.42;;;;;;;24.89;59.58;100714.06;4976567;28;20488;-83
2023/07/29 11:10:01;;;;;;;3.60;1.77;;;;;;;24.81;59.92;100708.91;4993983;28;20388;-83
2023/07/29 11:12:36;;;;;;;3.25;1.83;;;;;;;24.65;60.57;100714.47;4993985;28;20418;-81
2023/07/29 11:15:05;;;;;;;2.80;1.52;;;;;;;24.46;60.19;100705.38;4993917;28;20476;-84
2023/07/29 11:17:36;;;;;;;2.08;1.40;;;;;;;24.27;62.66;100706.81;4993508;28;20033;-84
2023/07/29 11:20:03;;;;;;;3.10;1.65;;;;;;;24.06;63.70;100714.72;4993798;28;20029;-87
2023/07/29 11:22:29;;;;;;;2.83;1.35;;;;;;;23.81;63.82;100716.91;4993785;28;20026;-86
2023/07/29 11:24:54;;;;;;;2.17;1.40;;;;;;;23.65;64.55;100720.56;4993700;28;20058;-83
2023/07/29 11:27:20;;;;;;;2.00;1.40;;;;;;;23.55;65.56;100727.09;4993626;28;20074;-82
2023/07/29 11:29:46;;;;;;;3.63;1.60;;;;;;;23.53;64.29;100719.38;4993666;28;20089;-84
2023/07/29 11:32:12;;;;;;;2.80;1.65;;;;;;;23.59;64.19;100717.81;4993115;28;20029;-84
2023/07/29 11:34:39;;;;;;;3.13;1.50;;;;;;;23.69;64.25;100715.72;4993534;28;20101;-84
2023/07/29 11:37:06;;;;;;;4.35;1.70;;;;;;;23.67;63.95;100696.63;4993336;28;20019;-80
2023/07/29 11:39:32;;;;;;;2.45;1.50;;;;;;;23.60;64.76;100706.31;4993559;28;20113;-84
2023/07/29 11:41:57;;;;;;;2.65;1.55;;;;;;;23.35;67.40;100737.38;4992684;28;20073;-82
2023/07/29 11:44:24;;;;;;;2.22;1.50;;;;;;;23.02;70.21;100715.84;4993484;28;20026;-82
2023/07/29 11:46:49;;;;;;;2.92;1.70;;;;;;;23.11;71.34;100712.94;4992123;28;20014;-84
2023/07/29 11:49:15;;;;;;;3.35;1.70;;;;;;;23.45;70.00;100735.28;4994241;28;20394;-80
2023/07/29 11:51:41;;;;;;;2.55;1.70;;;;;;;23.72;65.31;100726.72;4993486;28;20478;-78
2023/07/29 11:54:08;;;;;;;4.28;1.50;;;;;;;23.90;64.48;100728.16;4993121;28;20077;-79
2023/07/29 11:56:34;;;;;;;2.85;1.60;;;;;;;23.83;65.70;100735.16;4993159;28;20029;-82
2023/07/29 11:58:59;;;;;;;4.18;2.33;;;;;;;23.34;67.88;100741.81;4993033;28;20026;-83
2023/07/29 12:01:25;;;;;;;3.63;2.20;;;;;;;22.64;72.01;100720.28;4993134;28;20049;-80
2023/07/29 12:03:51;;;;;;;4.43;2.70;;;;;;;21.90;77.01;100701.50;4974876;28;20042;-79
2023/07/29 12:06:17;;;;;;;5.03;2.80;;;;;;;21.60;78.75;100727.63;4993293;28;20031;-81
2023/07/29 12:08:43;;;;;;;4.45;2.47;;;;;;;21.18;86.21;100733.16;4992901;28;20080;-79
2023/07/29 12:11:09;;;;;;;10.63;3.30;;;;;;;20.44;93.33;100732.38;4993108;28;20121;-77
2023/07/29 12:13:36;;;;;;;10.30;3.97;;;;;;;19.72;99.74;100716.31;4993035;28;20161;-80
2023/07/29 12:16:02;;;;;;;5.82;3.38;;;;;;;19.61;100.00;100708.72;4992859;28;20027;-81